Time;durP1;ratioP1;P1;durP2;ratioP2;P2;SDS_P1;SDS_P2;PMS_P1;PMS_P2;Temp;Humidity;BMP_temperature;BMP_pressure;BME280_temperature;BME280_humidity;BME280_pressure;Samples;Min_cycle;Max_cycle;Signal;HPM_P1;HPM_P2
2023/04/19 00:05:05;;;;;;;2.42;2.00;;;;;;;19.56;51.95;97344.94;10386458;28;20042;-70
2023/04/19 00:10:25;;;;;;;2.20;1.90;;;;;;;19.55;51.73;97340.63;10371476;28;20053;-71
2023/04/19 00:15:45;;;;;;;3.30;2.00;;;;;;;19.53;51.91;97337.44;10357826;28;20096;-70
2023/04/19 00:21:05;;;;;;;1.85;1.75;;;;;;;19.53;51.84;97329.31;10360195;28;20042;-71
2023/04/19 00:26:25;;;;;;;1.80;1.70;;;;;;;19.52;51.80;97325.03;10365002;28;20049;-71
2023/04/19 00:31:45;;;;;;;2.15;1.88;;;;;;;19.51;51.78;97315.34;10378616;28;20100;-71
2023/04/19 00:37:05;;;;;;;2.20;2.10;;;;;;;19.50;51.75;97302.94;10378279;28;20045;-70
2023/04/19 00:42:25;;;;;;;3.35;1.77;;;;;;;19.50;51.79;97300.25;10378162;28;20042;-71
2023/04/19 00:47:45;;;;;;;1.77;1.67;;;;;;;19.49;51.87;97293.22;10377918;28;20042;-70
2023/04/19 00:53:06;;;;;;;2.20;1.83;;;;;;;19.48;51.62;97288.94;10364082;28;20041;-71
2023/04/19 00:58:29;;;;;;;2.25;1.80;;;;;;;19.47;51.76;97275.75;10365453;28;20057;-70
2023/04/19 01:03:48;;;;;;;1.98;1.77;;;;;;;19.46;51.73;97277.63;10364161;28;20038;-71
2023/04/19 01:09:08;;;;;;;2.10;1.90;;;;;;;19.45;51.66;97284.16;10363445;28;20042;-71
2023/04/19 01:14:27;;;;;;;2.00;1.80;;;;;;;19.44;51.75;97274.44;10363102;28;20505;-71
2023/04/19 01:19:47;;;;;;;2.15;1.95;;;;;;;19.45;51.65;97261.75;10391501;28;20053;-70
2023/04/19 01:25:07;;;;;;;2.22;1.90;;;;;;;19.43;51.71;97255.84;10349341;28;20055;-71
2023/04/19 01:30:27;;;;;;;1.60;1.50;;;;;;;19.42;51.61;97240.75;10362466;28;20049;-71
2023/04/19 01:35:49;;;;;;;2.15;1.83;;;;;;;19.41;51.44;97247.28;10375366;28;20052;-70
2023/04/19 01:41:08;;;;;;;1.92;1.80;;;;;;;19.41;51.62;97245.34;10348581;28;20049;-70
2023/04/19 01:46:28;;;;;;;1.77;1.67;;;;;;;19.40;51.69;97237.56;10375654;28;20042;-70
2023/04/19 01:51:47;;;;;;;1.95;1.67;;;;;;;19.39;51.65;97231.38;10375499;28;20046;-71
2023/04/19 01:57:07;;;;;;;2.05;1.85;;;;;;;19.38;51.72;97229.75;10382073;28;20053;-71
2023/04/19 02:02:26;;;;;;;1.83;1.73;;;;;;;19.37;51.75;97220.06;10347756;28;20046;-72
2023/04/19 02:07:46;;;;;;;1.98;1.83;;;;;;;19.37;51.65;97222.78;10361170;28;20449;-72
2023/04/19 02:13:06;;;;;;;2.20;2.00;;;;;;;19.36;51.52;97211.16;10360991;28;20094;-72
2023/04/19 02:18:28;;;;;;;3.05;2.00;;;;;;;19.35;51.60;97214.19;10360753;28;20046;-73
2023/04/19 02:23:48;;;;;;;1.85;1.65;;;;;;;19.34;51.60;97201.78;10374280;28;20095;-72
2023/04/19 02:29:08;;;;;;;2.30;2.00;;;;;;;19.32;51.58;97199.38;10360214;28;20057;-72
2023/04/19 02:34:28;;;;;;;2.10;1.90;;;;;;;19.32;51.61;97199.38;10360490;28;20540;-73
2023/04/19 02:39:47;;;;;;;1.75;1.65;;;;;;;19.31;51.46;97188.91;10359984;28;20061;-72
2023/04/19 02:45:07;;;;;;;2.05;1.80;;;;;;;19.32;51.28;97190.50;10359770;28;20045;-72
2023/04/19 02:50:27;;;;;;;1.90;1.80;;;;;;;19.29;51.58;97183.81;10373215;28;20038;-72
2023/04/19 02:55:47;;;;;;;1.70;1.60;;;;;;;19.29;51.43;97183.03;10354481;28;20057;-72
2023/04/19 03:01:10;;;;;;;2.15;1.70;;;;;;;19.28;51.66;97173.31;10359698;28;20439;-72
2023/04/19 03:06:30;;;;;;;1.60;1.50;;;;;;;19.28;51.57;97165.22;10358658;28;20442;-73
2023/04/19 03:11:50;;;;;;;2.90;1.77;;;;;;;19.27;51.57;97161.72;10345423;28;20045;-73
2023/04/19 03:17:10;;;;;;;2.10;1.85;;;;;;;19.25;51.53;97153.16;10358824;28;20524;-72
2023/04/19 03:22:30;;;;;;;1.80;1.70;;;;;;;19.25;51.55;97149.63;10358673;28;20042;-72
2023/04/19 03:27:50;;;;;;;2.20;1.77;;;;;;;19.23;51.41;97136.44;10386933;28;20046;-72
2023/04/19 03:33:16;;;;;;;1.73;1.63;;;;;;;19.24;51.45;97132.63;10359902;28;20122;-72
2023/04/19 03:38:36;;;;;;;1.80;1.70;;;;;;;19.22;51.51;97128.66;10358430;28;20167;-72
2023/04/19 03:43:58;;;;;;;1.75;1.63;;;;;;;19.22;51.42;97117.84;10371941;28;20049;-72
2023/04/19 03:49:17;;;;;;;1.67;1.58;;;;;;;19.21;51.41;97116.25;10358054;28;20104;-72
2023/04/19 03:54:42;;;;;;;1.65;1.55;;;;;;;19.21;51.45;97111.66;10370178;28;20046;-72
2023/04/19 04:00:12;;;;;;;1.70;1.60;;;;;;;19.19;51.38;97105.78;10367874;28;20052;-72
2023/04/19 04:05:34;;;;;;;1.80;1.70;;;;;;;19.19;51.41;97102.25;10394528;28;20046;-72
2023/04/19 04:10:54;;;;;;;1.88;1.77;;;;;;;19.17;51.35;97099.91;10379372;28;20042;-72
2023/04/19 04:16:14;;;;;;;2.10;1.80;;;;;;;19.16;51.28;97096.38;10379223;28;20038;-72
2023/04/19 04:21:34;;;;;;;2.10;1.90;;;;;;;19.16;51.52;97104.47;10365329;28;20053;-73
2023/04/19 04:26:56;;;;;;;2.00;1.80;;;;;;;19.19;52.07;97099.56;10365146;28;20033;-72
2023/04/19 04:32:21;;;;;;;1.80;1.70;;;;;;;19.19;52.03;97107.66;10365360;28;20042;-72
2023/04/19 04:37:42;;;;;;;1.90;1.80;;;;;;;19.21;52.25;97105.44;10365059;28;20042;-73
2023/04/19 04:43:03;;;;;;;1.80;1.70;;;;;;;19.21;52.31;97102.75;10378140;28;20453;-73
2023/04/19 04:48:24;;;;;;;1.92;1.67;;;;;;;19.22;52.24;97090.84;10364721;28;20049;-72
2023/04/19 04:53:44;;;;;;;1.98;1.83;;;;;;;19.23;52.22;97087.84;10364046;28;20100;-72
2023/04/19 04:59:06;;;;;;;1.90;1.80;;;;;;;19.25;52.11;97095.59;10363891;28;20046;-74
2023/04/19 05:04:30;;;;;;;1.90;1.70;;;;;;;19.25;52.01;97090.19;10364365;28;20041;-74
2023/04/19 05:09:49;;;;;;;1.90;1.80;;;;;;;19.26;52.35;97092.59;10376123;28;20042;-72
2023/04/19 05:15:15;;;;;;;2.00;1.80;;;;;;;19.27;52.55;97082.59;10351120;28;20048;-72
2023/04/19 05:20:40;;;;;;;2.58;1.85;;;;;;;19.28;52.32;97074.16;10364470;28;20054;-72
2023/04/19 05:26:11;;;;;;;3.22;1.60;;;;;;;19.30;52.33;97068.44;10364685;28;20038;-72
2023/04/19 05:31:32;;;;;;;2.20;2.00;;;;;;;19.30;52.33;97061.13;10363129;28;20483;-72
2023/04/19 05:37:10;;;;;;;1.83;1.73;;;;;;;19.32;52.31;97058.91;10365683;28;20418;-72
2023/04/19 05:42:30;;;;;;;2.08;1.88;;;;;;;19.35;52.15;97057.50;10335665;28;20490;-72
2023/04/19 05:47:50;;;;;;;2.00;1.80;;;;;;;19.37;52.24;97068.78;10391012;28;20045;-72
2023/04/19 05:53:30;;;;;;;2.22;1.77;;;;;;;19.41;51.88;97067.03;10379108;28;20077;-72
2023/04/19 05:58:50;;;;;;;1.77;1.67;;;;;;;19.43;51.86;97059.41;10349699;28;20054;-71
2023/04/19 06:04:10;;;;;;;2.03;1.90;;;;;;;19.46;51.61;97061.47;10375079;28;20421;-71
2023/04/19 06:09:30;;;;;;;1.63;1.52;;;;;;;19.50;51.44;97077.84;10361298;28;20089;-71
2023/04/19 06:14:50;;;;;;;2.50;2.05;;;;;;;19.53;51.59;97069.13;10374623;28;20042;-71
2023/04/19 06:20:11;;;;;;;2.17;1.90;;;;;;;19.54;51.74;97066.09;10373894;28;20054;-71
2023/04/19 06:25:30;;;;;;;1.88;1.75;;;;;;;19.56;51.39;97069.28;10374321;28;20049;-71
2023/04/19 06:30:50;;;;;;;1.83;1.58;;;;;;;19.60;51.29;97079.44;10374015;28;20076;-71
2023/04/19 06:36:09;;;;;;;1.92;1.65;;;;;;;19.60;51.43;97072.16;10373830;28;20038;-71
2023/04/19 06:41:30;;;;;;;3.60;1.83;;;;;;;19.63;51.19;97063.38;10359930;28;20042;-71
2023/04/19 06:46:49;;;;;;;2.20;1.80;;;;;;;19.65;51.22;97063.06;10359575;28;20042;-71
2023/04/19 06:52:09;;;;;;;2.33;1.80;;;;;;;19.68;51.19;97068.66;10373074;28;20510;-71
2023/04/19 06:57:29;;;;;;;2.97;2.40;;;;;;;19.70;51.00;97068.34;10378424;28;20115;-71
2023/04/19 07:02:49;;;;;;;5.72;2.67;;;;;;;19.73;50.89;97062.31;10373082;28;20490;-71
2023/04/19 07:08:09;;;;;;;8.68;3.00;;;;;;;19.77;51.24;97063.25;10372865;28;20042;-71
2023/04/19 07:13:30;;;;;;;8.02;2.90;;;;;;;19.81;51.10;97061.50;10358951;28;20068;-71
2023/04/19 07:18:49;;;;;;;7.57;2.80;;;;;;;19.85;51.05;97048.94;10372489;28;20046;-71
2023/04/19 07:24:08;;;;;;;7.38;3.38;;;;;;;19.88;50.98;97053.72;10372441;28;20034;-71
2023/04/19 07:29:27;;;;;;;6.95;3.88;;;;;;;19.92;51.12;97054.66;10371462;28;20042;-71
2023/04/19 07:34:47;;;;;;;9.20;3.60;;;;;;;19.94;50.99;97057.06;10372217;28;20454;-71
2023/04/19 07:40:07;;;;;;;6.60;3.20;;;;;;;19.94;51.07;97047.03;10372058;28;20437;-71
2023/04/19 07:45:26;;;;;;;7.15;3.35;;;;;;;19.98;50.99;97043.69;10386742;28;20053;-71
2023/04/19 07:50:45;;;;;;;5.40;3.00;;;;;;;19.98;51.16;97035.56;10386672;28;20042;-71
2023/04/19 07:56:09;;;;;;;6.00;3.08;;;;;;;19.98;51.26;97027.47;10366169;28;20437;-71
2023/04/19 08:01:29;;;;;;;9.82;3.33;;;;;;;19.99;51.08;97029.81;10371628;28;20042;-71
2023/04/19 08:06:49;;;;;;;5.03;3.08;;;;;;;20.01;50.95;97019.47;10371465;28;20053;-71
2023/04/19 08:12:08;;;;;;;6.65;3.17;;;;;;;20.03;50.83;97021.88;10386264;28;20045;-71
2023/04/19 08:17:28;;;;;;;7.78;3.10;;;;;;;20.04;51.08;97013.44;10371445;28;20057;-71
2023/04/19 08:22:47;;;;;;;6.88;3.10;;;;;;;20.09;50.77;97020.56;10357526;28;20053;-71
2023/04/19 08:28:06;;;;;;;7.47;2.90;;;;;;;20.11;50.97;97024.56;10385822;28;20053;-71
2023/04/19 08:33:27;;;;;;;5.82;3.17;;;;;;;20.15;50.94;97022.81;10370890;28;20046;-71
2023/04/19 08:38:47;;;;;;;5.55;3.15;;;;;;;20.18;50.90;97010.53;10371128;28;20494;-71
2023/04/19 08:44:10;;;;;;;3.92;2.47;;;;;;;20.20;50.89;97008.31;10391067;28;20065;-71
2023/04/19 08:49:33;;;;;;;5.75;2.70;;;;;;;20.24;50.64;97006.53;10377923;28;20549;-71
2023/04/19 08:54:54;;;;;;;4.65;2.47;;;;;;;20.27;50.59;96995.09;10373725;28;20049;-71
2023/04/19 09:00:14;;;;;;;5.32;2.83;;;;;;;20.29;50.74;96995.56;10377528;28;20041;-71
2023/04/19 09:05:34;;;;;;;5.97;2.90;;;;;;;20.30;50.66;96977.41;10377603;28;20474;-72
2023/04/19 09:10:53;;;;;;;6.50;2.90;;;;;;;20.32;51.04;96980.56;10363382;28;20045;-71
2023/04/19 09:16:23;;;;;;;5.10;2.63;;;;;;;20.34;50.85;96970.22;10376944;28;20048;-72
2023/04/19 09:21:43;;;;;;;3.92;2.70;;;;;;;20.33;51.11;96961.31;10391534;28;20431;-71
2023/04/19 09:27:03;;;;;;;4.00;2.47;;;;;;;20.34;50.97;96956.69;10362820;28;20042;-72
2023/04/19 09:32:22;;;;;;;5.22;2.50;;;;;;;20.35;50.99;96966.41;10376346;28;20422;-71
2023/04/19 09:37:42;;;;;;;4.45;2.50;;;;;;;20.37;51.07;96952.56;10376538;28;20046;-72
2023/04/19 09:43:02;;;;;;;3.40;2.33;;;;;;;20.39;51.05;96953.03;10362230;28;20041;-71
2023/04/19 09:48:21;;;;;;;3.28;2.63;;;;;;;20.41;51.05;96945.38;10375838;28;20038;-71
2023/04/19 09:53:41;;;;;;;3.15;2.25;;;;;;;20.42;51.23;96936.13;10361422;28;20491;-71
2023/04/19 09:59:02;;;;;;;3.97;2.22;;;;;;;20.42;51.05;96930.72;10390213;28;20046;-71
2023/04/19 10:04:22;;;;;;;3.83;2.20;;;;;;;20.43;51.12;96929.59;10389935;28;20045;-72
2023/04/19 10:09:42;;;;;;;3.70;2.70;;;;;;;20.42;51.27;96931.50;10374627;28;20482;-71
2023/04/19 10:15:01;;;;;;;6.05;2.40;;;;;;;20.44;51.18;96950.13;10361328;28;20037;-71
2023/04/19 10:20:28;;;;;;;4.00;2.33;;;;;;;20.46;51.30;96937.84;10361585;28;20132;-71
2023/04/19 10:25:47;;;;;;;2.80;2.30;;;;;;;20.48;51.05;96938.34;10374293;28;20068;-71
2023/04/19 10:31:10;;;;;;;2.50;2.20;;;;;;;20.49;50.94;96942.63;10360353;28;20042;-71
2023/04/19 10:36:31;;;;;;;3.15;2.10;;;;;;;20.49;50.94;96920.97;10373818;28;20420;-71
2023/04/19 10:41:58;;;;;;;3.72;2.03;;;;;;;20.50;51.00;96917.16;10373645;28;20050;-72
2023/04/19 10:47:40;;;;;;;3.58;2.10;;;;;;;20.50;50.82;96921.75;10373657;28;20038;-71
2023/04/19 10:53:38;;;;;;;4.60;2.30;;;;;;;20.51;50.90;96920.63;10373387;28;20041;-72
2023/04/19 10:59:01;;;;;;;2.80;2.03;;;;;;;20.51;50.92;96918.72;10374415;28;20058;-71
2023/04/19 11:04:23;;;;;;;3.00;2.10;;;;;;;20.52;50.80;96906.78;10387005;28;20058;-71
2023/04/19 11:09:47;;;;;;;7.07;2.00;;;;;;;20.53;50.91;96907.56;10372910;28;20056;-71
2023/04/19 11:15:08;;;;;;;3.88;2.08;;;;;;;20.53;50.65;96896.75;10372602;28;20046;-71
2023/04/19 11:20:28;;;;;;;6.78;2.45;;;;;;;20.52;50.84;96911.38;10387207;28;20110;-71
2023/04/19 11:25:50;;;;;;;2.60;1.88;;;;;;;20.52;50.98;96914.09;10372402;28;20490;-71
2023/04/19 11:31:09;;;;;;;2.88;1.98;;;;;;;20.51;50.92;96913.31;10386924;28;20100;-71
2023/04/19 11:36:35;;;;;;;5.32;1.92;;;;;;;20.51;50.66;96921.44;10358557;28;20044;-71
2023/04/19 11:41:55;;;;;;;4.05;1.60;;;;;;;20.50;50.68;96917.16;10358840;28;20042;-72
2023/04/19 11:47:14;;;;;;;5.00;2.22;;;;;;;20.45;43.27;96919.25;10373268;28;20049;-72
2023/04/19 11:52:34;;;;;;;4.55;2.20;;;;;;;20.08;36.36;96929.75;10386728;28;20069;-72
2023/04/19 11:57:55;;;;;;;6.90;2.20;;;;;;;19.86;35.22;96918.06;10361212;28;20062;-72
2023/04/19 12:03:15;;;;;;;6.25;2.05;;;;;;;20.01;39.68;96924.03;10371842;28;20046;-71
2023/04/19 12:08:41;;;;;;;5.97;2.13;;;;;;;20.10;39.10;96927.53;10357634;28;20042;-71
2023/04/19 12:14:21;;;;;;;3.80;2.03;;;;;;;20.18;40.11;96936.72;10357760;28;20045;-71
2023/04/19 12:19:44;;;;;;;2.70;1.83;;;;;;;20.21;40.49;96926.06;10378545;28;20053;-71
2023/04/19 12:25:05;;;;;;;5.22;2.30;;;;;;;20.21;35.56;96925.22;10379056;28;20053;-71
2023/04/19 12:30:25;;;;;;;4.72;1.90;;;;;;;20.21;39.59;96944.97;10393490;28;20064;-71
2023/04/19 12:35:44;;;;;;;2.30;1.98;;;;;;;20.23;39.89;96956.28;10364346;28;20050;-71
2023/04/19 12:41:04;;;;;;;2.67;1.90;;;;;;;20.24;39.98;96944.31;10378143;28;20085;-70
2023/04/19 12:46:23;;;;;;;7.20;1.98;;;;;;;20.26;40.50;96935.88;10378016;28;20045;-70
2023/04/19 12:51:42;;;;;;;3.08;1.90;;;;;;;20.28;41.05;96947.97;10392773;28;20045;-70
2023/04/19 12:57:02;;;;;;;3.30;1.90;;;;;;;20.32;41.31;96942.69;10384614;28;20410;-71
2023/04/19 13:02:21;;;;;;;2.22;1.85;;;;;;;20.34;41.92;96945.88;10363840;28;20100;-72
2023/04/19 13:07:41;;;;;;;3.22;1.77;;;;;;;20.35;42.27;96942.84;10392251;28;20413;-72
2023/04/19 13:13:01;;;;;;;3.42;1.85;;;;;;;20.37;42.65;96949.84;10377374;28;20045;-72
2023/04/19 13:18:21;;;;;;;2.78;1.80;;;;;;;20.39;43.03;96950.31;10377124;28;20486;-72
2023/04/19 13:23:42;;;;;;;2.88;1.90;;;;;;;20.39;43.39;96944.91;10349560;28;20060;-72
2023/04/19 13:29:02;;;;;;;3.65;1.92;;;;;;;20.42;43.69;96941.53;10390366;28;20041;-72
2023/04/19 13:34:22;;;;;;;5.18;2.70;;;;;;;20.30;37.17;96937.59;10376377;28;20485;-72
2023/04/19 13:39:41;;;;;;;3.15;1.75;;;;;;;20.28;41.67;96934.44;10376195;28;20565;-72
2023/04/19 13:45:01;;;;;;;4.53;2.05;;;;;;;20.31;41.48;96930.31;10375724;28;20050;-72
2023/04/19 13:50:20;;;;;;;2.75;2.00;;;;;;;20.33;41.83;96930.78;10361915;28;20267;-72
2023/04/19 13:55:40;;;;;;;3.78;2.00;;;;;;;20.35;42.41;96921.19;10356661;28;20061;-72
2023/04/19 14:00:59;;;;;;;2.47;1.77;;;;;;;20.38;42.74;96916.25;10375293;28;20049;-72
2023/04/19 14:06:19;;;;;;;2.65;1.85;;;;;;;20.38;43.06;96908.13;10361468;28;20046;-72
2023/04/19 14:11:38;;;;;;;2.38;1.92;;;;;;;20.39;43.67;96912.44;10374880;28;20080;-72
2023/04/19 14:16:58;;;;;;;2.30;1.73;;;;;;;20.40;43.76;96905.91;10374676;28;20056;-72
2023/04/19 14:22:17;;;;;;;2.00;1.65;;;;;;;20.42;44.08;96906.34;10360411;28;20046;-72
2023/04/19 14:27:37;;;;;;;2.85;2.00;;;;;;;20.43;44.46;96907.97;10360580;28;20049;-72
2023/04/19 14:32:57;;;;;;;3.33;1.90;;;;;;;20.43;44.65;96907.97;10374086;28;20042;-72
2023/04/19 14:38:16;;;;;;;2.47;1.70;;;;;;;20.42;44.90;96907.16;10388381;28;20050;-72
2023/04/19 14:43:35;;;;;;;3.42;1.83;;;;;;;20.43;45.15;96902.53;10388212;28;20038;-72
2023/04/19 14:48:56;;;;;;;2.30;1.90;;;;;;;20.43;45.40;96894.44;10373412;28;20046;-72
2023/04/19 14:54:15;;;;;;;2.20;1.80;;;;;;;20.44;45.68;96890.59;10372497;28;20046;-72
2023/04/19 14:59:34;;;;;;;1.67;1.50;;;;;;;20.44;45.95;96888.66;10373671;28;20057;-72
2023/04/19 15:04:54;;;;;;;2.03;1.60;;;;;;;20.44;45.44;96888.66;10372932;28;20046;-72
2023/04/19 15:10:13;;;;;;;2.42;1.70;;;;;;;20.42;45.74;96882.00;10387524;28;20042;-72
2023/04/19 15:15:33;;;;;;;2.08;1.70;;;;;;;20.42;45.87;96877.38;10372616;28;20049;-72
2023/04/19 15:20:52;;;;;;;2.42;1.83;;;;;;;20.44;46.10;96880.56;10387289;28;20042;-73
2023/04/19 15:26:12;;;;;;;2.13;1.92;;;;;;;20.45;46.28;96868.63;10358839;28;20501;-73
2023/04/19 15:31:31;;;;;;;2.00;1.70;;;;;;;20.47;46.50;96869.09;10358564;28;20050;-73
2023/04/19 15:36:51;;;;;;;2.00;1.80;;;;;;;20.47;46.51;96868.28;10386985;28;20045;-73
2023/04/19 15:42:10;;;;;;;2.33;1.80;;;;;;;20.47;46.79;96866.38;10358130;28;20049;-72
2023/04/19 15:47:30;;;;;;;3.47;1.90;;;;;;;20.47;46.64;96871.78;10358488;28;20108;-71
2023/04/19 15:52:49;;;;;;;2.45;1.65;;;;;;;20.44;46.51;96866.22;10390555;28;20053;-73
2023/04/19 15:58:09;;;;;;;2.05;1.48;;;;;;;20.44;45.71;96861.59;10368630;28;20065;-73
2023/04/19 16:03:28;;;;;;;2.80;1.70;;;;;;;20.43;46.46;96861.97;10379760;28;20410;-73
2023/04/19 16:08:49;;;;;;;1.83;1.73;;;;;;;20.44;46.62;96867.03;10365851;28;20042;-73
2023/04/19 16:14:08;;;;;;;3.38;1.55;;;;;;;20.46;47.05;96870.19;10379410;28;20046;-73
2023/04/19 16:19:28;;;;;;;1.70;1.60;;;;;;;20.45;47.37;96867.84;10379227;28;20050;-73
2023/04/19 16:24:47;;;;;;;1.67;1.45;;;;;;;20.45;47.73;96859.72;10379018;28;20482;-73
2023/04/19 16:30:07;;;;;;;6.57;2.10;;;;;;;20.41;43.34;96862.28;10378974;28;20042;-73
2023/04/19 16:35:27;;;;;;;1.90;1.70;;;;;;;20.39;45.28;96858.31;10378668;28;20038;-72
2023/04/19 16:40:48;;;;;;;1.70;1.55;;;;;;;20.38;45.93;96862.94;10364723;28;20050;-73
2023/04/19 16:46:07;;;;;;;1.38;1.27;;;;;;;20.37;46.18;96868.69;10378181;28;20038;-73
2023/04/19 16:51:27;;;;;;;4.93;1.70;;;;;;;20.37;46.26;96871.38;10377708;28;20043;-73
2023/04/19 16:56:47;;;;;;;1.60;1.50;;;;;;;20.37;46.90;96868.69;10370464;28;20054;-72
2023/04/19 17:02:07;;;;;;;2.92;1.77;;;;;;;20.36;47.13;96862.47;10377266;28;20042;-71
2023/04/19 17:07:27;;;;;;;1.60;1.50;;;;;;;20.34;47.04;96860.06;10392680;28;20042;-71
2023/04/19 17:12:47;;;;;;;1.88;1.50;;;;;;;20.33;47.35;96858.50;10363642;28;20046;-72
2023/04/19 17:18:07;;;;;;;1.85;1.75;;;;;;;20.32;47.51;96865.03;10377166;28;20414;-71
2023/04/19 17:23:26;;;;;;;2.13;1.90;;;;;;;20.31;46.23;96876.97;10376692;28;20529;-72
2023/04/19 17:28:46;;;;;;;1.90;1.80;;;;;;;20.28;47.84;96883.03;10362883;28;20046;-72
2023/04/19 17:34:05;;;;;;;3.45;2.08;;;;;;;20.27;47.99;96886.88;10363219;28;20414;-71
2023/04/19 17:39:26;;;;;;;2.90;2.25;;;;;;;20.28;48.69;96883.03;10376774;28;20050;-71
2023/04/19 17:44:46;;;;;;;2.75;1.83;;;;;;;20.28;49.21;96896.56;10362900;28;20045;-70
2023/04/19 17:50:07;;;;;;;4.55;2.22;;;;;;;20.30;49.12;96905.13;10379486;28;20034;-72
2023/04/19 17:55:27;;;;;;;3.08;1.80;;;;;;;20.28;49.71;96901.97;10359355;28;20054;-71
2023/04/19 18:00:47;;;;;;;1.73;1.52;;;;;;;20.28;50.08;96901.97;10376784;28;20494;-74
2023/04/19 18:06:08;;;;;;;2.70;1.70;;;;;;;20.28;50.36;96906.59;10361769;28;20052;-72
2023/04/19 18:11:27;;;;;;;2.97;1.90;;;;;;;20.28;50.50;96918.19;10375505;28;20092;-74
2023/04/19 18:16:47;;;;;;;2.42;2.00;;;;;;;20.26;50.43;96920.44;10375175;28;20049;-74
2023/04/19 18:22:06;;;;;;;2.10;1.90;;;;;;;20.26;51.00;96925.84;10360814;28;20045;-72
2023/04/19 18:27:26;;;;;;;2.58;1.42;;;;;;;20.27;51.17;96929.38;10389324;28;20049;-72
2023/04/19 18:32:46;;;;;;;1.20;1.10;;;;;;;20.25;51.45;96926.97;10374521;28;20042;-71
2023/04/19 18:38:08;;;;;;;2.05;1.70;;;;;;;20.25;51.30;96935.09;10373706;28;20045;-72
2023/04/19 18:43:27;;;;;;;2.85;1.65;;;;;;;20.24;51.38;96947.03;10346508;28;20498;-71
2023/04/19 18:48:47;;;;;;;1.30;1.15;;;;;;;20.24;51.45;96944.31;10373616;28;20041;-72
2023/04/19 18:54:06;;;;;;;1.80;1.55;;;;;;;20.24;51.52;96940.81;10387784;28;20386;-71
2023/04/19 18:59:26;;;;;;;2.28;2.00;;;;;;;20.23;51.25;96947.34;10373923;28;20046;-73
2023/04/19 19:04:45;;;;;;;2.20;2.00;;;;;;;20.21;50.98;96947.69;10373091;28;20053;-73
2023/04/19 19:10:06;;;;;;;1.90;1.80;;;;;;;20.20;51.31;96954.19;10387677;28;20405;-74
2023/04/19 19:15:26;;;;;;;2.45;1.90;;;;;;;20.20;51.38;96953.41;10359343;28;20125;-72
2023/04/19 19:20:45;;;;;;;3.33;2.10;;;;;;;20.19;51.89;96960.75;10359221;28;20414;-74
2023/04/19 19:26:05;;;;;;;1.80;1.70;;;;;;;20.18;51.89;96956.44;10372024;28;20048;-74
2023/04/19 19:31:25;;;;;;;2.10;1.90;;;;;;;20.18;51.88;96961.06;10372925;28;20044;-74
2023/04/19 19:36:44;;;;;;;2.53;1.92;;;;;;;20.18;51.59;96974.59;10387443;28;20450;-75
2023/04/19 19:42:03;;;;;;;2.58;1.80;;;;;;;20.16;52.48;96977.63;10358618;28;20413;-74
2023/04/19 19:47:24;;;;;;;2.25;1.65;;;;;;;20.16;52.53;96980.31;10372771;28;20038;-72
2023/04/19 19:52:43;;;;;;;2.40;1.70;;;;;;;20.14;52.73;96980.63;10372044;28;20045;-74
2023/04/19 19:58:03;;;;;;;1.80;1.70;;;;;;;20.14;52.73;96977.13;10347433;28;20062;-73
2023/04/19 20:03:22;;;;;;;6.90;1.73;;;;;;;20.13;53.13;96978.25;10358347;28;20046;-74
2023/04/19 20:08:42;;;;;;;2.55;1.77;;;;;;;20.12;53.14;96976.66;10357957;28;20041;-75
2023/04/19 20:14:01;;;;;;;5.32;2.00;;;;;;;20.11;53.46;96978.59;10371709;28;20054;-75
2023/04/19 20:19:20;;;;;;;2.70;1.73;;;;;;;20.11;53.14;96975.88;10371856;28;20042;-75
2023/04/19 20:24:41;;;;;;;1.75;1.50;;;;;;;20.10;53.30;96970.78;10386671;28;20042;-75
2023/04/19 20:30:01;;;;;;;2.63;1.63;;;;;;;20.10;53.46;96978.91;10358449;28;20049;-75
2023/04/19 20:35:20;;;;;;;1.83;1.70;;;;;;;20.10;53.49;96981.63;10371240;28;20486;-74
2023/04/19 20:40:41;;;;;;;3.50;1.60;;;;;;;20.09;53.31;96974.59;10377484;28;20414;-72
2023/04/19 20:46:00;;;;;;;2.38;1.63;;;;;;;20.08;53.36;96981.16;10378531;28;20049;-73
2023/04/19 20:51:20;;;;;;;3.58;1.85;;;;;;;20.07;53.82;96976.84;10378322;28;20046;-72
2023/04/19 20:56:39;;;;;;;2.45;1.80;;;;;;;20.06;53.69;96980.66;10355914;28;20054;-73
2023/04/19 21:01:59;;;;;;;2.90;1.75;;;;;;;20.05;53.79;96981.78;10364711;28;20042;-73
2023/04/19 21:07:19;;;;;;;2.65;1.73;;;;;;;20.04;53.34;96991.81;10378302;28;20045;-73
2023/04/19 21:12:38;;;;;;;2.65;1.60;;;;;;;20.03;53.28;96984.81;10377903;28;20053;-74
2023/04/19 21:17:57;;;;;;;4.38;1.70;;;;;;;20.04;53.07;96988.31;10377781;28;20049;-74
2023/04/19 21:23:17;;;;;;;1.98;1.45;;;;;;;20.02;53.15;96988.63;10392317;28;20046;-74
2023/04/19 21:28:37;;;;;;;2.13;1.33;;;;;;;20.02;53.02;96994.03;10377397;28;20041;-74
2023/04/19 21:33:56;;;;;;;2.38;1.70;;;;;;;20.01;52.92;96991.66;10363396;28;20042;-74
2023/04/19 21:39:15;;;;;;;1.60;1.50;;;;;;;20.00;52.85;96984.66;10377004;28;20046;-74
2023/04/19 21:44:35;;;;;;;2.95;1.60;;;;;;;19.99;52.76;96986.56;10376824;28;20049;-73
2023/04/19 21:49:54;;;;;;;2.47;1.60;;;;;;;19.99;52.76;96974.97;10390250;28;20041;-72
2023/04/19 21:55:13;;;;;;;1.65;1.50;;;;;;;19.98;53.05;96984.19;10372775;28;20065;-72
2023/04/19 22:00:33;;;;;;;3.00;1.70;;;;;;;19.98;52.89;96984.19;10362133;28;20045;-73
2023/04/19 22:05:52;;;;;;;3.22;1.83;;;;;;;19.97;52.65;96980.69;10361829;28;20402;-73
2023/04/19 22:11:11;;;;;;;1.60;1.50;;;;;;;19.95;52.84;96977.50;10361444;28;20050;-72
2023/04/19 22:16:33;;;;;;;2.40;1.58;;;;;;;19.95;52.76;96978.31;10375011;28;20041;-74
2023/04/19 22:21:53;;;;;;;1.70;1.52;;;;;;;19.95;52.76;96972.09;10361397;28;20084;-73
2023/04/19 22:27:13;;;;;;;3.05;1.60;;;;;;;19.93;52.75;96979.75;10374490;28;20046;-74
2023/04/19 22:32:33;;;;;;;3.17;1.70;;;;;;;19.92;52.62;96976.25;10374279;28;20088;-73
2023/04/19 22:37:52;;;;;;;1.88;1.48;;;;;;;19.92;52.75;96973.53;10374093;28;20045;-73
2023/04/19 22:43:11;;;;;;;2.22;1.40;;;;;;;19.91;52.42;96979.28;10373970;28;20453;-73
2023/04/19 22:48:31;;;;;;;2.10;1.40;;;;;;;19.91;52.46;96982.75;10373616;28;20103;-74
2023/04/19 22:53:51;;;;;;;1.40;1.30;;;;;;;19.90;52.57;96989.28;10373633;28;20050;-73
2023/04/19 22:59:12;;;;;;;2.65;1.50;;;;;;;19.90;52.38;96980.41;10373282;28;20501;-73
2023/04/19 23:04:35;;;;;;;1.40;1.25;;;;;;;19.88;52.67;96978.00;10373416;28;20395;-73
2023/04/19 23:09:55;;;;;;;1.50;1.40;;;;;;;19.87;52.02;96979.13;10359319;28;20077;-73
2023/04/19 23:15:14;;;;;;;1.60;1.40;;;;;;;19.86;52.29;96980.25;10359159;28;20046;-73
2023/04/19 23:20:34;;;;;;;2.28;1.23;;;;;;;19.87;52.20;96968.28;10387473;28;20088;-73
2023/04/19 23:25:54;;;;;;;1.42;1.30;;;;;;;19.86;52.14;96977.53;10372464;28;20042;-73
2023/04/19 23:31:14;;;;;;;1.60;1.40;;;;;;;19.84;52.09;96973.56;10372337;28;20088;-74
2023/04/19 23:36:34;;;;;;;1.67;1.20;;;;;;;19.83;51.91;96961.16;10372245;28;20046;-73
2023/04/19 23:41:53;;;;;;;1.42;1.33;;;;;;;19.83;51.92;96955.75;10386947;28;20050;-73
2023/04/19 23:47:12;;;;;;;1.33;1.23;;;;;;;19.81;51.73;96949.88;10371941;28;20053;-73
2023/04/19 23:52:32;;;;;;;1.60;1.33;;;;;;;19.81;51.68;96949.88;10386780;28;20092;-73
2023/04/19 23:57:51;;;;;;;1.25;1.15;;;;;;;19.79;51.52;96949.41;10347648;28;20116;-73
